Kevin Gutierrez

Recruteur - Monterrey
17 Juil 2027
Samedi
Processus

Personnalité

Adaptabilité (14) Ambition (4) Controverse (20) Loyauté (4) Pression (16) Professionnalisme (15) Sportivité (3) Tempérament (5)

Profil

Style d'entraînement Démocratique
Diplôme Continental Pro
Détermination 12
Gestion des joueurs 5
Motivation 6
Discipline 5
Satisfaction professionnelle
65%
Fatigue
0%
Rôle Recruteur
Salaire 94.3K p/s
Contrat 14.03.2030

Performance

Comportement Bon
Efficacité de l'entraînement
40%
Développement des joueurs
35%
Prévention des blessures
30%
Mise en place tactique
75%

Événements récents

A participé à une réunion de recrutement maintenant
A recommandé une cible de transfert maintenant
A évalué un joueur 7j
A participé à une réunion de recrutement 7j
A recommandé une cible de transfert 7j
A recommandé une cible de transfert 7j
A recommandé une cible de transfert 7j
A évalué un joueur 14j

Suivi en cours

241
Joueur Club Statut Capacité Confiance Observé Dernière observation Dernier vote
Nico Melamed Almería Actif 144 / 136 40% 3 05.07.2027 -
Javi Ontiveros Cádiz Actif 136 / 134 40% 2 05.07.2027 -
Toni Fruk Valladolid Actif 134 / 140 40% 5 04.07.2027 Observer
Unai Vencedor Burgos Actif 122 / 140 40% 2 04.07.2027 -
David Larrubia Málaga Actif 130 / 133 40% 3 03.07.2027 -
Carlos Álvarez Club America Actif 137 / 141 40% 1 03.07.2027 -
José Arnáiz Granada Perdu 139 / 129 40% 3 02.07.2027 -
Marc Cucurella Real Madrid Actif 145 / 151 40% 1 02.07.2027 -
Toni Martínez Alavés Actif 131 / 141 40% 1 02.07.2027 -
Joe Gelhardt Hull City Actif 140 / 138 40% 2 01.07.2027 Plus d'infos
Alejandro Piedrahita Deportivo Pereira Perdu 122 / 123 40% 3 01.07.2027 -
Aune Heggebø West Bromwich Albion Actif 115 / 133 40% 2 30.06.2027 -
Leandro Trossard Besiktas Actif 148 / 154 40% 2 30.06.2027 -
David Mella Deportivo La Coruña Actif 130 / 143 40% 3 28.06.2027 -
Oladapo Afolayan Blackburn Rovers Actif 110 / 118 40% 2 27.06.2027 -
Aarón Racing Santander Actif 137 / 131 40% 5 27.06.2027 -
Manu Fuster Las Palmas Actif 149 / 139 40% 5 26.06.2027 -
Christantus Uche Getafe Actif 148 / 148 40% 1 26.06.2027 -
Enzo Loiodice KAA Gent Actif 136 / 126 40% 3 25.06.2027 -
Isma Ruiz Córdoba Actif 127 / 128 40% 1 25.06.2027 -
Lamine Cissé Peterborough United Actif 106 / 130 40% 3 22.06.2027 -
Íñigo Vicente Racing Santander Actif 127 / 125 40% 1 22.06.2027 -
Callum O'Hare Sheffield United Actif 139 / 128 40% 2 21.06.2027 -
Pablo Santiago Castellón Actif 132 / 127 40% 2 21.06.2027 -
Dani Raba Valencia Perdu 138 / 130 40% 1 21.06.2027 -
Diego Pampín Granada Actif 123 / 132 40% 2 17.06.2027 -
Adrià Altimira Deportivo La Coruña Actif 121 / 139 40% 2 17.06.2027 -
Lucas Ribeiro Cultural Leonesa Actif 133 / 133 40% 4 16.06.2027 -
Sergio Falcao Cortulua Perdu 123 / 129 40% 1 14.06.2027 -
Riki Deportivo La Coruña Actif 129 / 121 40% 2 12.06.2027 -
Adrián Niño Málaga Actif 113 / 118 40% 1 12.06.2027 -
Jon Morcillo Almería Actif 148 / 137 40% 4 11.06.2027 -
Domagoj Drožđek Tractor Actif 147 / 123 40% 1 11.06.2027 -
Iñigo Córdoba Castellón Actif 140 / 127 40% 1 11.06.2027 -
Álex Lizancos Burgos Actif 115 / 134 40% 1 10.06.2027 -
Diego Lainez Tigres Actif 131 / 136 40% 1 10.06.2027 -
Jack McGlynn Stoke City Actif 135 / 131 40% 3 09.06.2027 -
Raúl Moro Osasuna Actif 159 / 137 40% 1 08.06.2027 -
Marvin Park Las Palmas Actif 118 / 124 40% 1 08.06.2027 -
Iñaki Williams Athletic Bilbao Actif 147 / 154 40% 2 06.06.2027 -
Ezequiel Ponce Elche Actif 124 / 132 40% 1 06.06.2027 -
Yanis Begraoui Estoril Praia Actif 138 / 136 40% 2 03.06.2027 -
Abdallah Sima RC Lens Actif 139 / 128 40% 1 02.06.2027 -
Alexey Miranchuk RC Strasbourg Actif 129 / 134 40% 1 02.06.2027 -
Raúl Rangel Brighton Actif 132 / 132 66% 1 01.06.2027 Approuver
Marcel Ruiz Brentford Actif 140 / 141 66% 1 01.06.2027 Approuver
Richard Ledezma River Plate Actif 134 / 135 67% 1 01.06.2027 Approuver
Paulinho Toluca Actif 138 / 142 51% 1 01.06.2027 -
Hirving Lozano San Diego Football Club Actif 127 / 128 40% 1 31.05.2027 -
Iván Gil Eibar Actif 109 / 122 40% 2 30.05.2027 -
Carlos Neva Albacete Actif 116 / 132 40% 2 30.05.2027 -
Fran Pérez Rayo Vallecano Actif 134 / 134 40% 1 29.05.2027 -
Ángel Correa River Plate Perdu 153 / 140 40% 1 29.05.2027 Plus d'infos
Uriel Antuna Pumas UNAM Actif 144 / 134 40% 4 28.05.2027 -
Sandro Las Palmas Actif 120 / 125 40% 1 28.05.2027 -
Welington Southampton Actif 142 / 136 40% 2 24.05.2027 -
Edu Expósito Espanyol Actif 152 / 141 40% 1 24.05.2027 -
Alex Valera Universitario Actif 118 / 124 40% 1 24.05.2027 -
Wesley Saïd RC Lens Actif 120 / 138 40% 2 22.05.2027 -
Óscar Aranda Getafe Actif 148 / 127 40% 1 22.05.2027 -
Manu Morlanes Mallorca Actif 141 / 139 40% 1 19.05.2027 -
Koki Saito Queens Park Rangers Actif 137 / 130 40% 2 18.05.2027 -
Ilyas Ansah Hull City Actif 136 / 137 40% 4 17.05.2027 -
Jonas Wind Braga Actif 130 / 126 40% 1 15.05.2027 -
Sebastián Córdova Pumas UNAM Actif 135 / 127 40% 4 14.05.2027 -
Ilyas Chaira Oviedo Actif 118 / 128 40% 2 14.05.2027 -
Adu Ares Eibar Actif 120 / 129 40% 2 14.05.2027 -
Zizo Al Ahly Actif 135 / 139 40% 1 14.05.2027 -
Umar Sadiq Valencia Actif 122 / 143 40% 3 12.05.2027 -
Joaquín Correa Estudiantes Actif 126 / 126 40% 1 12.05.2027 -
Enric Franquesa Leganés Actif 142 / 127 40% 1 10.05.2027 -
Enrique Clemente Las Palmas Actif 119 / 124 40% 1 10.05.2027 -
Ander Guevara Alavés Actif 150 / 136 40% 2 08.05.2027 -
Javi Martínez Eibar Actif 149 / 136 40% 1 08.05.2027 -
Zeidane Inoussa Swansea City Actif 121 / 122 40% 1 08.05.2027 -
Carlos Vicente Udinese Actif 137 / 140 40% 1 06.05.2027 -
Yusi Alavés Actif 130 / 126 40% 1 04.05.2027 -
Lucas Boyé Alavés Actif 120 / 128 40% 2 03.05.2027 -
Pejiño Eibar Actif 132 / 128 40% 1 03.05.2027 -
Daijiro Chirino Almería Actif 114 / 125 40% 1 03.05.2027 -
Marc Roca Betis Actif 144 / 140 40% 1 03.05.2027 -
Youssef En-Nesyri Al-Ittihad Actif 150 / 139 40% 2 01.05.2027 -
Santiago Sanchez Santa Fe Actif 135 / 131 40% 1 29.04.2027 -
Guille Rosas Gijón Actif 149 / 141 40% 1 28.04.2027 -
Orri Óskarsson Real Sociedad Actif 136 / 131 40% 1 27.04.2027 -
Fábio Carvalho Brentford Actif 137 / 148 40% 1 26.04.2027 -
Konan N'Dri Lecce Actif 145 / 121 40% 1 23.04.2027 -
Aitor Ruibal Betis Actif 129 / 139 40% 1 21.04.2027 -
Pedro de la Vega Leganés Actif 132 / 128 40% 1 19.04.2027 -
Fashion Sakala MC Alger Actif 117 / 131 40% 1 18.04.2027 -
Sebas Moyano Zaragoza Actif 126 / 126 40% 1 16.04.2027 -
Urko Izeta Cádiz Actif 115 / 127 40% 1 16.04.2027 -
Oussama Idrissi Ferencvaros Actif 138 / 147 40% 4 15.04.2027 -
Kenny Tete Fulham Actif 123 / 141 40% 1 15.04.2027 -
Wilson Isidor Sunderland Actif 155 / 142 40% 1 15.04.2027 -
Romain Del Castillo Osasuna Actif 117 / 139 40% 1 15.04.2027 -
Mario Soriano Deportivo La Coruña Actif 145 / 126 40% 1 13.04.2027 -
Diego López Valencia Actif 129 / 144 40% 1 13.04.2027 -
Helinho Toluca Perdu 140 / 130 40% 4 10.04.2027 -
Ezequiel Bullaude Santos Laguna Actif 125 / 123 40% 2 09.04.2027 -
Miguel Rodríguez Alavés Actif 114 / 128 40% 1 08.04.2027 -
Alemão Rayo Vallecano Actif 119 / 133 40% 1 07.04.2027 -
Ryoya Morishita Blackburn Rovers Actif 122 / 119 40% 2 06.04.2027 -
Erik Lira Cruz Azul Actif 150 / 129 40% 4 05.04.2027 -
Ronald Swansea City Actif 133 / 129 40% 1 05.04.2027 -
Mattéo Tramoni Pisa Actif 119 / 135 40% 2 04.04.2027 -
João Carvalho Estoril Praia Actif 141 / 127 40% 2 04.04.2027 -
Demarai Gray Birmingham Actif 145 / 121 40% 3 04.04.2027 -
Luis Quintero Torreense Actif 144 / 117 40% 1 04.04.2027 -
Mama Baldé Stade Brestois Actif 133 / 136 40% 1 02.04.2027 -
Václav Černý Besiktas Actif 140 / 132 40% 1 01.04.2027 -
Álex Valle Como Actif 153 / 145 40% 1 01.04.2027 -
Juan Pablo Domínguez Leon Actif 123 / 122 40% 2 30.03.2027 -
Jérémy Livolant Casa Pia Actif 130 / 116 40% 1 30.03.2027 -
Finn Azaz Southampton Actif 140 / 127 40% 3 29.03.2027 -
Hwang Hee-Chan Wolverhampton Actif 127 / 125 40% 2 28.03.2027 -
Diber Cambindo Leon Actif 126 / 124 40% 1 28.03.2027 -
Brian Gutiérrez Guadalajara Actif 134 / 129 40% 1 27.03.2027 -
Agustín Palavecino Cruz Azul Actif 147 / 142 40% 2 25.03.2027 -
Gerónimo Rivera Al Wahda Actif 134 / 123 40% 1 25.03.2027 -
Milot Rashica Besiktas Actif 128 / 133 40% 1 25.03.2027 -
Juninho Pumas UNAM Actif 139 / 127 40% 1 23.03.2027 -
Leon Bailey Olympiacos Actif 138 / 131 40% 3 20.03.2027 -
Jack Rudoni Coventry City Actif 128 / 125 40% 2 19.03.2027 -
Shea Charles Southampton Actif 144 / 141 40% 4 19.03.2027 -
Bryan González Guadalajara Actif 119 / 134 48% 3 17.03.2027 -
Ramón Terrats Getafe Actif 122 / 133 40% 2 15.03.2027 -
Steven Bergwijn Al-Ittihad Actif 167 / 146 40% 1 15.03.2027 -
Santi García Gil Vicente Actif 121 / 138 40% 1 14.03.2027 -
Sidny Lopes Cabral Trabzonspor Actif 153 / 128 40% 1 13.03.2027 -
Christian Krasnodar Actif 150 / 130 40% 4 12.03.2027 -
Mateo Cassierra Atlético Mineiro Actif 139 / 135 40% 1 11.03.2027 -
Henry Mosquera Bragantino Actif 122 / 128 40% 1 10.03.2027 -
Richard Koné Queens Park Rangers Actif 135 / 128 40% 2 09.03.2027 -
Sam Greenwood Bristol City Actif 129 / 122 40% 1 09.03.2027 -
Tomáš Chorý Spartak Moscow Perdu 162 / 147 40% 1 09.03.2027 -
Luca Orellano Atlético Madrid Actif 138 / 137 40% 2 07.03.2027 -
Ramón Juárez Club America Actif 138 / 133 40% 2 06.03.2027 -
Sergio Barreto Pachuca Actif 125 / 129 40% 3 06.03.2027 -
Lucas Torreira Galatasaray Actif 147 / 144 40% 1 04.03.2027 -
Adriano Bertaccini Anderlecht Actif 111 / 116 40% 3 01.03.2027 -
Jeon Jin-Woo Sheffield Wednesday Actif 115 / 123 40% 2 01.03.2027 -
Alejandro Zendejas Club America Actif 154 / 138 40% 2 27.02.2027 -
Ollie Watkins Al-Hilal Actif 166 / 149 40% 1 27.02.2027 -
Giovani Lo Celso AC Milan Actif 140 / 149 40% 1 24.02.2027 -
Jesús Ricardo Angulo Toluca Actif 120 / 138 40% 1 24.02.2027 -
Luke McNally Bristol City Actif 150 / 125 40% 1 23.02.2027 -
Jacob Greaves Ipswich Town Actif 134 / 138 40% 1 23.02.2027 -
Prosper Obah Shakhtar Actif 147 / 135 40% 1 20.02.2027 -
Leandro Godoy CSKA Sofia Actif 117 / 125 40% 1 20.02.2027 -
Adam Randell Bristol City Actif 108 / 129 40% 2 19.02.2027 -
Bruno Méndez Toluca Actif 124 / 124 40% 3 19.02.2027 -
Alexis Vega Famalicao Actif 165 / 145 40% 1 18.02.2027 -
Stephen Eustáquio Swansea City Actif 124 / 131 40% 1 16.02.2027 -
Everton Cebolinha Farense Actif 112 / 125 40% 1 16.02.2027 -
Santiago Pierotti Lecce Actif 127 / 129 40% 2 15.02.2027 -
Marcelo Flores Tigres Actif 123 / 119 40% 4 15.02.2027 -
Bobby Thomas Coventry City Actif 116 / 141 40% 1 15.02.2027 -
Kerem Aktürkoğlu Fenerbahce Actif 124 / 140 40% 4 14.02.2027 -
Nemanja Radonjić Crvena Zvezda Actif 131 / 134 40% 1 11.02.2027 -
Bright Arrey-Mbi Braga Actif 143 / 133 40% 2 10.02.2027 -
Mario Dorgeles Braga Actif 131 / 129 40% 1 10.02.2027 -
Florentino Luís Ipswich Town Actif 147 / 132 40% 3 09.02.2027 -
Oliver Skipp Leicester City Actif 117 / 124 40% 1 08.02.2027 -
Eliás Montiel Atlético Madrid Actif 121 / 132 40% 1 08.02.2027 -
Alexandro Bernabei Internacional Actif 134 / 129 40% 3 07.02.2027 -
Kaveh Azmoun Siah Jamegan Actif 118 / 133 40% 1 05.02.2027 -
Nazareno Colombo Racing Club Actif 120 / 128 40% 1 27.01.2027 -
Ilay Camara Anderlecht Actif 140 / 131 40% 3 22.01.2027 -
Jesús Orozco Chiquete Cruz Azul Actif 137 / 126 40% 1 22.01.2027 -
Florián Monzón Atlas Actif 111 / 121 40% 3 18.01.2027 -
Tyrese Campbell Sheffield United Actif 128 / 134 40% 1 17.01.2027 -
Mihailo Ivanović Millwall Actif 135 / 116 40% 1 13.01.2027 -
Radek Vítek Middlesbrough Actif 140 / 137 40% 1 11.01.2027 -
Mauro Silveira Junior Actif 112 / 115 40% 1 11.01.2027 -
Alberto Costa Porto Actif 128 / 137 40% 1 10.01.2027 -
Felipe Peña Biafore Lanús Actif 116 / 123 40% 1 09.01.2027 -
Alexis Cuello San Lorenzo Actif 135 / 120 40% 4 08.01.2027 -
Ignacio Russo Tigre Actif 123 / 119 40% 1 08.01.2027 -
Max Johnston Derby County Actif 129 / 126 40% 1 04.01.2027 -
Harry Clarke Preston Actif 113 / 136 40% 1 01.01.2027 -
Matías Giménez Rojas Argentinos Juniors Actif 126 / 121 40% 3 29.12.2026 -
Geny Sporting CP Actif 134 / 145 40% 1 28.12.2026 -
Ayrton Costa Boca Juniors Actif 123 / 126 40% 3 27.12.2026 -
Mohamed Belloumi Hull City Actif 114 / 128 40% 1 26.12.2026 -
Franco Romero Toluca Perdu 131 / 121 40% 1 24.12.2026 -
Tobias Bech AGF Actif 149 / 137 40% 1 22.12.2026 -
Facundo Pellistri Panathinaikos Actif 152 / 120 40% 1 20.12.2026 -
Yousef Salech Cardiff City Actif 147 / 116 40% 1 15.12.2026 -
Patrick Agyemang Derby County Actif 111 / 117 40% 1 15.12.2026 -
Dom Ballard Leyton Orient Actif 125 / 130 40% 1 13.12.2026 -
Jovon Makama Norwich City Actif 120 / 133 40% 1 12.12.2026 -
Jay Stansfield Birmingham Actif 124 / 120 40% 1 08.12.2026 -
Imrân Louza Watford Actif 134 / 123 40% 1 05.12.2026 -
Alessio Zerbin Frosinone Actif 122 / 130 40% 1 02.12.2026 -
Rumarn Burrell Queens Park Rangers Actif 141 / 120 40% 2 01.12.2026 -
Xavier Biscayzacú Sporting CP Actif 121 / 135 40% 2 01.12.2026 -
Lautaro Di Lollo Boca Juniors Actif 138 / 125 40% 1 01.12.2026 -
Marcus Holmgren Pedersen Olympiacos Actif 123 / 137 40% 1 29.11.2026 -
Federico Navarro Rosario Central Actif 116 / 121 40% 1 29.11.2026 -
Eduard Spertsyan Al-Ahli Actif 131 / 131 40% 2 25.11.2026 -
Håkon Evjen Bodo/Glimt Actif 152 / 137 40% 3 22.11.2026 -
Troy Parrott Betis Actif 150 / 147 40% 4 20.11.2026 -
Favio Cabral Mitre Actif 111 / 115 40% 2 20.11.2026 -
Juan Carlos Portillo River Plate Actif 128 / 130 40% 1 18.11.2026 -
Marquinhos Spartak Moscow Actif 119 / 137 40% 1 17.11.2026 -
Valentín Barco Chelsea Actif 152 / 144 40% 2 14.11.2026 -
Andrea Colpani Monza Actif 130 / 142 40% 1 14.11.2026 -
Marco Pellegrino Boca Juniors Actif 126 / 125 40% 1 14.11.2026 -
Elías Torres Racing Club Actif 119 / 126 40% 2 07.11.2026 -
David Miculescu FCSB Actif 131 / 112 40% 1 06.11.2026 -
Jefry Zapata Once Caldas Actif 121 / 116 40% 3 02.11.2026 -
Blas Armoa Gimnasia y Esgrima Actif 116 / 116 40% 1 31.10.2026 -
Alexander Díaz Deportivo Riestra Actif 106 / 116 40% 2 30.10.2026 -
Dejan Joveljić Seattle Sounders Actif 136 / 124 40% 1 30.10.2026 -
George Hirst Stoke City Actif 135 / 123 40% 1 28.10.2026 -
Aníbal Moreno River Plate Actif 133 / 136 40% 1 25.10.2026 -
Pablo Solari Spartak Moscow Actif 118 / 128 40% 1 23.10.2026 -
Tomás Chancalay Minnesota United FC Actif 138 / 128 40% 2 19.10.2026 -
Alejo Cruz Juventud Actif 106 / 115 40% 1 18.10.2026 -
Alan Velasco Boca Juniors Actif 120 / 134 40% 2 17.10.2026 -
Clemente Montes Universidad Catolica Actif 127 / 126 40% 1 17.10.2026 -
Paxten Aaronson Colorado Rapids Actif 120 / 137 40% 1 16.10.2026 -
Bazoumana Touré Newcastle United Actif 149 / 147 40% 1 13.10.2026 -
Nicolò Cambiaghi Bologna Actif 131 / 144 40% 1 12.10.2026 -
Franco Ibarra Rosario Central Actif 131 / 126 40% 1 08.10.2026 -
Luciano Cosentino Wanderers Actif 118 / 118 40% 1 08.10.2026 -
Tadeo Allende Inter Miami CF Actif 115 / 125 40% 1 03.10.2026 -
Luca Langoni New England Revolution Actif 126 / 127 40% 1 27.09.2026 -
Brandon Vázquez Austin FC Actif 127 / 115 40% 1 27.09.2026 -
Yacine Adli Al-Shabab Actif 150 / 137 40% 1 26.09.2026 -
Josh Sargent Toronto FC Actif 129 / 127 40% 1 22.09.2026 -
Jesus Ferreira Seattle Sounders Actif 133 / 133 40% 1 18.09.2026 -
Gedson Fernandes Spartak Moscow Actif 119 / 128 40% 2 15.09.2026 -
Tiago Djaló Besiktas Actif 124 / 129 40% 1 07.09.2026 -
Igor Nikić Lech Actif 132 / 125 40% 1 26.08.2026 -
Marvin Keller Racing Genk Actif 149 / 140 40% 1 25.08.2026 -
CJ dos Santos San Diego Football Club Actif 112 / 110 40% 1 18.08.2026 -
Diego Romero Universitario Actif 126 / 115 40% 1 18.08.2026 -
Juan David Cabal Juventus Actif 118 / 135 40% 1 05.08.2026 -
Luke Shaw Manchester United Actif 154 / 156 40% 1 01.08.2026 -